»·PEaware :: N701GT KMRY-KHND

N701GT :: KMRY-KHND

FLIGHT INFORMATION

Flight Status: Arrived
Operator: Privately registered:
United States
More flights under this callsign
Pilot: Anonymous 17564 (17564)
Aircraft: Unknown
(B200)
More flights by this aircraft type
Origin: KMRY Monterey Peninsula
United States
Destination: KHND Henderson
United States
More flights between these airports :: More routes between these airports
Route: +MRY4 SNS BTY ADDEL1
File this flight plan on PilotEdge
Remarks:
Altitude:
(Current/Filed)
29,000ft
Speed:
(Current/Filed)
300kts
Departed: 19-Aug-18 07:14 PM
Arrived: 19-Aug-18 08:36 PM
Distance/Time
Traveled:
326nm/1:21
Distance/Time
To Go:
Arrived

Flight Plot

Page will automatically refresh every two minutes.


Map Options




Map Legend


Flown Route
Filed Route
Departure Airport
Arrival Airport
Navaid (VOR, NDB)
Fix

Horizontal Profiles

Position Reports

Time Latitude Longitude Heading Altitude Ground
Speed
19-Aug-18 18:50 36.588835 -121.853877 245 209ft 0kts
19-Aug-18 18:51 36.588835 -121.853877 245 209ft 0kts
19-Aug-18 18:52 36.588835 -121.853877 245 209ft 0kts
19-Aug-18 18:53 36.588833 -121.853880 245 209ft 0kts
19-Aug-18 18:54 36.588832 -121.853884 245 209ft 0kts
19-Aug-18 18:55 36.588829 -121.853891 245 209ft 0kts
19-Aug-18 18:56 36.588827 -121.853897 245 209ft 0kts
19-Aug-18 18:57 36.588827 -121.853897 245 209ft 0kts
19-Aug-18 18:58 36.588827 -121.853897 245 209ft 0kts
19-Aug-18 18:59 36.588827 -121.853897 245 209ft 0kts
19-Aug-18 19:00 36.588827 -121.853897 245 209ft 0kts
19-Aug-18 19:01 36.588827 -121.853897 245 209ft 0kts
19-Aug-18 19:02 36.588827 -121.853897 245 209ft 0kts
19-Aug-18 19:03 36.588827 -121.853897 245 209ft 0kts
19-Aug-18 19:04 36.588827 -121.853897 245 209ft 0kts
19-Aug-18 19:05 36.588827 -121.853897 245 209ft 0kts
19-Aug-18 19:06 36.588980 -121.853982 46 209ft 0kts
19-Aug-18 19:07 36.589060 -121.853876 46 209ft 3kts
19-Aug-18 19:08 36.587679 -121.848917 116 209ft 22kts
19-Aug-18 19:09 36.585612 -121.843169 113 209ft 16kts
19-Aug-18 19:10 36.583786 -121.837764 112 209ft 15kts
19-Aug-18 19:11 36.582890 -121.834981 94 209ft 0kts
19-Aug-18 19:12 36.582890 -121.834981 94 209ft 0kts
19-Aug-18 19:13 36.582890 -121.834981 94 209ft 0kts
19-Aug-18 19:14 36.582889 -121.833726 73 209ft 18kts
19-Aug-18 19:15 36.590374 -121.852647 293 527ft 132kts
19-Aug-18 19:16 36.611942 -121.893883 338 2637ft 171kts
19-Aug-18 19:17 36.664786 -121.906208 19 4084ft 214kts
19-Aug-18 19:18 36.679138 -121.840966 104 5999ft 214kts
19-Aug-18 19:19 36.669736 -121.768074 95 8165ft 211kts
19-Aug-18 19:20 36.666564 -121.694562 93 10077ft 213kts
19-Aug-18 19:21 36.664372 -121.620242 93 11896ft 215kts
19-Aug-18 19:22 36.666335 -121.543891 87 13386ft 228kts
19-Aug-18 19:23 36.670494 -121.463546 87 14743ft 235kts
19-Aug-18 19:24 36.674424 -121.381801 88 16098ft 241kts
19-Aug-18 19:25 36.678393 -121.296564 88 17183ft 250kts
19-Aug-18 19:26 36.682378 -121.209457 88 18284ft 253kts
19-Aug-18 19:27 36.686329 -121.121526 88 19381ft 255kts
19-Aug-18 19:28 36.690251 -121.032686 88 20380ft 261kts
19-Aug-18 19:29 36.694237 -120.940621 88 21188ft 268kts
19-Aug-18 19:30 36.698221 -120.847145 88 21987ft 272kts
19-Aug-18 19:31 36.702200 -120.752228 88 22788ft 275kts
19-Aug-18 19:32 36.706128 -120.656593 89 23587ft 277kts
19-Aug-18 19:33 36.710017 -120.559484 89 24174ft 285kts
19-Aug-18 19:34 36.713944 -120.459691 89 24677ft 290kts
19-Aug-18 19:35 36.717846 -120.358768 89 25177ft 293kts
19-Aug-18 19:36 36.721696 -120.256712 89 25679ft 294kts
19-Aug-18 19:37 36.725453 -120.154622 89 26179ft 295kts
19-Aug-18 19:38 36.729133 -120.052356 89 26677ft 296kts
19-Aug-18 19:39 36.732726 -119.949802 89 27176ft 296kts
19-Aug-18 19:40 36.736252 -119.846993 89 27673ft 296kts
19-Aug-18 19:41 36.739695 -119.743648 89 27966ft 300kts
19-Aug-18 19:42 36.743041 -119.641186 89 28640ft 291kts
19-Aug-18 19:43 36.746234 -119.539640 89 28874ft 296kts
19-Aug-18 19:44 36.749392 -119.437077 89 28874ft 296kts
19-Aug-18 19:45 36.752459 -119.334763 89 28887ft 296kts
19-Aug-18 19:46 36.755422 -119.233637 89 28897ft 286kts
19-Aug-18 19:47 36.758184 -119.135348 89 28909ft 281kts
19-Aug-18 19:48 36.760832 -119.038324 89 28924ft 279kts
19-Aug-18 19:49 36.763395 -118.941757 89 28920ft 279kts
19-Aug-18 19:50 36.765889 -118.844843 89 28897ft 279kts
19-Aug-18 19:51 36.768297 -118.748559 89 28990ft 275kts
19-Aug-18 19:52 36.770606 -118.652909 90 29022ft 276kts
19-Aug-18 19:53 36.772847 -118.556998 90 29025ft 277kts
19-Aug-18 19:54 36.775021 -118.460616 90 29024ft 277kts
19-Aug-18 19:55 36.777113 -118.364298 90 29021ft 278kts
19-Aug-18 19:56 36.778814 -118.282207 90 28972ft 294kts
19-Aug-18 19:57 36.781291 -118.159480 89 28966ft 309kts
19-Aug-18 19:58 36.783387 -118.051413 90 28967ft 313kts
19-Aug-18 19:59 36.785066 -117.960328 89 28968ft 315kts
19-Aug-18 20:00 36.787307 -117.832466 89 28970ft 316kts
19-Aug-18 20:01 36.789115 -117.722771 90 28972ft 317kts
19-Aug-18 20:02 36.790536 -117.631539 90 28982ft 316kts
19-Aug-18 20:03 36.792420 -117.503362 90 28989ft 317kts
19-Aug-18 20:04 36.793682 -117.411414 90 28989ft 317kts
19-Aug-18 20:05 36.795103 -117.301379 90 28990ft 318kts
19-Aug-18 20:06 36.796427 -117.190788 90 28990ft 319kts
19-Aug-18 20:07 36.797650 -117.080219 90 28990ft 319kts
19-Aug-18 20:08 36.798621 -116.983141 90 28853ft 323kts
19-Aug-18 20:09 36.799546 -116.882941 90 28847ft 321kts
19-Aug-18 20:10 36.798055 -116.771801 107 28842ft 318kts
19-Aug-18 20:11 36.752576 -116.679699 132 28839ft 312kts
19-Aug-18 20:12 36.695950 -116.597812 134 28832ft 312kts
19-Aug-18 20:13 36.638491 -116.516415 134 28825ft 311kts
19-Aug-18 20:14 36.581289 -116.435403 134 28818ft 311kts
19-Aug-18 20:15 36.524297 -116.354764 134 28707ft 304kts
19-Aug-18 20:16 36.468499 -116.275977 133 27343ft 303kts
19-Aug-18 20:17 36.417039 -116.201520 132 25931ft 270kts
19-Aug-18 20:18 36.368555 -116.130954 132 24533ft 267kts
19-Aug-18 20:19 36.320117 -116.061191 133 23134ft 265kts
19-Aug-18 20:20 36.270341 -115.994013 134 21733ft 262kts
19-Aug-18 20:21 36.221076 -115.927851 134 20339ft 260kts
19-Aug-18 20:22 36.183072 -115.852290 108 18802ft 265kts
19-Aug-18 20:23 36.159935 -115.764372 110 17007ft 269kts
19-Aug-18 20:24 36.132738 -115.681307 113 15801ft 247kts
19-Aug-18 20:25 36.106462 -115.603707 113 13822ft 242kts
19-Aug-18 20:26 36.081381 -115.528747 112 12768ft 243kts
19-Aug-18 20:27 36.054834 -115.447705 112 11884ft 258kts
19-Aug-18 20:28 36.028561 -115.364429 104 11083ft 262kts
19-Aug-18 20:29 36.022827 -115.273941 93 10285ft 265kts
19-Aug-18 20:30 35.989204 -115.195749 144 8079ft 295kts
19-Aug-18 20:31 35.913616 -115.184761 191 7136ft 254kts
19-Aug-18 20:32 35.848449 -115.199255 187 5314ft 244kts
19-Aug-18 20:33 35.829159 -115.155746 17 4527ft 197kts
19-Aug-18 20:34 35.882290 -115.147849 7 4126ft 201kts
19-Aug-18 20:35 35.929359 -115.135771 357 3597ft 130kts
19-Aug-18 20:36 35.961603 -115.135569 357 2607ft 115kts
19-Aug-18 20:37 35.977440 -115.135618 297 2496ft 9kts
19-Aug-18 20:38 35.977477 -115.135881 270 2496ft 0kts
19-Aug-18 20:39 35.977707 -115.137977 356 2496ft 0kts
19-Aug-18 20:40 35.977708 -115.137977 356 2496ft 0kts
19-Aug-18 20:41 35.977708 -115.137977 356 2496ft 0kts
19-Aug-18 20:42 35.977708 -115.137977 356 2496ft 0kts
19-Aug-18 20:43 35.977708 -115.137977 356 2496ft 0kts

Navigation Log

Ident Type
Flight plan parsing failed, navigation log unavailable